createdAt,value
2023-01-13T00:54:24.714Z,12.18
2023-01-13T00:55:25.575Z,6.49
2023-01-13T00:56:39.858Z,5.94
2023-01-13T00:57:25.525Z,6.36
2023-01-13T00:58:25.477Z,6.77
2023-01-13T00:59:25.727Z,5.99
2023-01-13T01:00:25.418Z,6.29
2023-01-13T01:01:25.551Z,5.45
2023-01-13T01:02:25.650Z,6.22
2023-01-13T01:03:25.370Z,6.52
2023-01-13T01:04:25.283Z,5.66
2023-01-13T01:05:25.250Z,6.21
2023-01-13T01:06:25.520Z,5.51
2023-01-13T01:07:25.243Z,5.66
2023-01-13T01:08:25.159Z,6.11
2023-01-13T01:09:25.172Z,5.81
2023-01-13T01:10:25.074Z,5.58
2023-01-13T01:11:25.005Z,5.41
2023-01-13T01:12:25.068Z,5.53
2023-01-13T01:13:25.002Z,5.30
2023-01-13T01:14:24.899Z,5.60
2023-01-13T01:15:24.858Z,6.07
2023-01-13T01:16:24.918Z,6.16
2023-01-13T01:17:24.863Z,5.34
2023-01-13T01:18:24.735Z,6.15
2023-01-13T01:19:24.722Z,5.52
2023-01-13T01:20:24.669Z,5.35
2023-01-13T01:21:24.661Z,5.40
2023-01-13T01:22:24.592Z,6.06
2023-01-13T01:23:24.654Z,5.95
2023-01-13T01:24:24.556Z,5.85
2023-01-13T01:25:24.474Z,5.15
2023-01-13T01:26:24.477Z,5.37
2023-01-13T01:27:24.410Z,5.19
2023-01-13T01:28:24.380Z,6.26
2023-01-13T01:29:24.422Z,5.82
2023-01-13T01:30:24.301Z,5.45
2023-01-13T01:31:24.357Z,5.02
2023-01-13T01:32:24.226Z,5.60
2023-01-13T01:33:24.195Z,5.84
2023-01-13T01:34:24.192Z,4.81
2023-01-13T01:35:24.208Z,5.39
2023-01-13T01:36:24.093Z,5.21
2023-01-13T01:37:24.058Z,5.53
2023-01-13T01:38:24.014Z,5.49
2023-01-13T01:39:23.985Z,5.43
2023-01-13T01:40:23.952Z,5.24
2023-01-13T01:41:23.990Z,6.00
2023-01-13T01:42:23.891Z,5.18
2023-01-13T01:43:23.825Z,5.35
2023-01-13T01:44:23.804Z,5.80
2023-01-13T01:45:23.737Z,5.28
2023-01-13T01:46:23.774Z,5.40
2023-01-13T01:47:23.758Z,5.38
2023-01-13T01:48:23.600Z,5.68
2023-01-13T01:49:23.612Z,5.89
2023-01-13T01:50:23.518Z,6.10
2023-01-13T01:51:23.472Z,5.40
2023-01-13T01:52:23.486Z,4.98
2023-01-13T01:53:23.472Z,5.41
2023-01-13T01:54:23.367Z,5.04
2023-01-13T01:55:23.297Z,5.11
2023-01-13T01:56:23.263Z,4.70
2023-01-13T01:57:23.237Z,5.98
2023-01-13T01:58:23.202Z,5.05
2023-01-13T01:59:23.245Z,5.35
2023-01-13T02:00:23.089Z,5.72
2023-01-13T02:01:23.168Z,4.52
2023-01-13T02:02:23.076Z,5.84
2023-01-13T02:03:22.970Z,4.68
2023-01-13T02:04:22.935Z,5.39
2023-01-13T02:05:22.985Z,5.18
2023-01-13T02:06:22.845Z,5.06
2023-01-13T02:07:22.905Z,5.49
2023-01-13T02:08:22.781Z,5.05
2023-01-13T02:09:22.728Z,6.01
2023-01-13T02:10:22.732Z,5.54
2023-01-13T02:11:22.756Z,4.98
2023-01-13T02:12:22.619Z,5.81
2023-01-13T02:13:22.574Z,5.18
2023-01-13T02:14:22.571Z,4.90
2023-01-13T02:15:22.489Z,5.00
2023-01-13T02:16:22.518Z,5.79
2023-01-13T02:17:22.517Z,4.75
2023-01-13T02:18:22.374Z,5.30
2023-01-13T02:19:22.348Z,4.62
2023-01-13T02:20:22.294Z,4.46
2023-01-13T02:21:22.274Z,5.69
2023-01-13T02:22:22.330Z,5.03
2023-01-13T02:23:22.172Z,5.15
2023-01-13T02:24:22.132Z,5.36
2023-01-13T02:25:22.097Z,4.90
2023-01-13T02:26:22.055Z,5.35
2023-01-13T02:27:22.120Z,4.53
2023-01-13T02:28:21.987Z,5.04
2023-01-13T02:29:21.940Z,5.17
2023-01-13T02:30:21.926Z,5.53
2023-01-13T02:31:21.962Z,4.89
2023-01-13T02:32:21.834Z,4.48
2023-01-13T02:33:21.902Z,4.86
2023-01-13T02:34:21.753Z,5.59
2023-01-13T02:35:21.720Z,5.00
2023-01-13T02:36:21.672Z,4.96
2023-01-13T02:37:21.633Z,4.87
2023-01-13T02:38:21.590Z,5.06
2023-01-13T02:39:21.647Z,5.57
2023-01-13T02:40:21.529Z,5.13
2023-01-13T02:41:21.488Z,5.69
2023-01-13T02:42:21.454Z,5.45
2023-01-13T02:43:21.416Z,5.46
2023-01-13T02:44:21.378Z,5.18
2023-01-13T02:45:21.412Z,5.20
2023-01-13T02:46:21.330Z,5.78
2023-01-13T02:47:21.276Z,5.22
2023-01-13T02:48:21.285Z,5.46
2023-01-13T02:49:21.194Z,4.91
2023-01-13T02:50:21.153Z,5.36
2023-01-13T02:51:21.194Z,5.45
2023-01-13T02:52:21.087Z,5.13
2023-01-13T02:53:21.050Z,5.20
2023-01-13T02:54:20.990Z,4.96
2023-01-13T02:55:20.975Z,5.17
2023-01-13T02:56:20.919Z,5.43
2023-01-13T02:57:20.948Z,5.06
2023-01-13T02:58:20.834Z,4.89
2023-01-13T02:59:20.797Z,4.85
2023-01-13T03:00:20.773Z,5.16
2023-01-13T03:01:20.804Z,5.45
2023-01-13T03:02:20.901Z,5.23
2023-01-13T03:03:20.718Z,4.96
2023-01-13T03:04:20.596Z,4.88
2023-01-13T03:05:20.556Z,5.78
2023-01-13T03:06:20.531Z,5.22
2023-01-13T03:07:20.475Z,4.95
2023-01-13T03:08:20.434Z,5.25
2023-01-13T03:09:20.464Z,5.09
2023-01-13T03:10:20.353Z,4.98
2023-01-13T03:11:20.307Z,4.92
2023-01-13T03:12:20.269Z,5.23
2023-01-13T03:13:20.235Z,5.12
2023-01-13T03:14:20.195Z,5.24
2023-01-13T03:15:20.351Z,5.01
2023-01-13T03:16:20.170Z,5.64
2023-01-13T03:17:20.086Z,5.24
2023-01-13T03:18:20.065Z,5.09
2023-01-13T03:19:20.000Z,5.40
2023-01-13T03:20:19.961Z,4.78
2023-01-13T03:21:19.954Z,5.17
2023-01-13T03:22:19.878Z,4.67
2023-01-13T03:23:19.849Z,5.35
2023-01-13T03:24:19.813Z,4.87
2023-01-13T03:25:19.763Z,5.19
2023-01-13T03:26:19.734Z,4.87
2023-01-13T03:27:19.686Z,4.88
2023-01-13T03:28:19.649Z,4.52
2023-01-13T03:29:19.615Z,5.17
2023-01-13T03:30:19.582Z,5.41
2023-01-13T03:31:19.533Z,5.10
2023-01-13T03:32:19.493Z,5.39
2023-01-13T03:33:19.453Z,5.22
2023-01-13T03:34:19.450Z,4.78
2023-01-13T03:35:19.384Z,5.18
2023-01-13T03:36:19.344Z,4.61
2023-01-13T03:37:19.315Z,4.90
2023-01-13T03:38:19.284Z,4.41
2023-01-13T03:39:19.250Z,4.38
2023-01-13T03:40:19.206Z,5.14
2023-01-13T03:41:19.173Z,4.85
2023-01-13T03:42:19.134Z,4.84
2023-01-13T03:43:19.106Z,5.08
2023-01-13T03:44:19.077Z,4.92
2023-01-13T03:45:19.042Z,5.05
2023-01-13T03:46:19.035Z,5.30
2023-01-13T03:47:18.960Z,4.83
2023-01-13T03:48:18.932Z,5.21
2023-01-13T03:49:18.931Z,5.16
2023-01-13T03:50:18.901Z,5.30
2023-01-13T03:51:18.823Z,4.95
2023-01-13T03:52:18.831Z,5.28
2023-01-13T03:53:18.766Z,4.94
2023-01-13T03:54:18.711Z,4.84
2023-01-13T03:55:18.708Z,5.36
2023-01-13T03:56:18.642Z,4.66
2023-01-13T03:57:18.599Z,4.56
2023-01-13T03:58:18.618Z,4.68
2023-01-13T03:59:18.531Z,5.27
2023-01-13T04:00:18.495Z,5.25
2023-01-13T04:01:18.552Z,5.36
2023-01-13T04:02:18.516Z,4.94
2023-01-13T04:03:18.380Z,5.24
2023-01-13T04:04:18.343Z,5.59
2023-01-13T04:05:18.320Z,5.00
2023-01-13T04:06:18.322Z,5.20
2023-01-13T04:07:18.237Z,5.12
2023-01-13T04:08:18.202Z,4.73
2023-01-13T04:09:18.183Z,4.97
2023-01-13T04:10:18.124Z,5.01
2023-01-13T04:11:18.090Z,4.88
2023-01-13T04:12:18.087Z,5.09
2023-01-13T04:13:18.017Z,4.90
2023-01-13T04:14:17.987Z,5.39
2023-01-13T04:15:17.945Z,5.00
2023-01-13T04:16:17.916Z,4.66
2023-01-13T04:17:17.884Z,4.98
2023-01-13T04:18:17.841Z,4.98
2023-01-13T04:19:17.818Z,4.95
2023-01-13T04:20:17.770Z,5.35
2023-01-13T04:21:17.736Z,4.52
2023-01-13T04:22:17.738Z,4.88
2023-01-13T04:23:17.681Z,4.30
2023-01-13T04:24:17.618Z,5.17
2023-01-13T04:25:17.583Z,4.77
2023-01-13T04:26:17.547Z,4.32
2023-01-13T04:27:17.508Z,4.55
2023-01-13T04:28:17.489Z,4.47
2023-01-13T04:29:17.423Z,4.55
2023-01-13T04:30:17.385Z,4.56
2023-01-13T04:31:17.420Z,4.59
2023-01-13T04:32:17.306Z,4.44
2023-01-13T04:33:17.268Z,4.74
2023-01-13T04:34:17.238Z,5.20
2023-01-13T04:35:17.196Z,4.80
2023-01-13T04:36:17.160Z,5.08
2023-01-13T04:37:17.123Z,4.60
2023-01-13T04:38:17.102Z,4.82
2023-01-13T04:39:17.047Z,4.78
2023-01-13T04:40:17.019Z,4.56
2023-01-13T04:41:16.977Z,5.14
2023-01-13T04:42:16.940Z,4.40
2023-01-13T04:43:16.888Z,4.87
2023-01-13T04:44:16.856Z,4.38
2023-01-13T04:45:16.812Z,4.56
2023-01-13T04:46:16.875Z,4.78
2023-01-13T04:47:16.732Z,4.54
2023-01-13T04:48:16.683Z,3.90
2023-01-13T04:49:16.645Z,4.73
2023-01-13T04:50:16.609Z,5.34
2023-01-13T04:51:16.603Z,5.42
2023-01-13T04:52:16.531Z,4.93
2023-01-13T04:53:16.501Z,5.06
2023-01-13T04:54:16.466Z,4.94
2023-01-13T04:55:16.412Z,4.60
2023-01-13T04:56:16.373Z,5.03
2023-01-13T04:57:16.346Z,4.71
2023-01-13T04:58:16.304Z,4.73
2023-01-13T04:59:16.262Z,4.76
2023-01-13T05:00:16.241Z,5.25
2023-01-13T05:01:16.282Z,4.14
2023-01-13T05:02:16.180Z,4.18
2023-01-13T05:03:16.107Z,4.77
2023-01-13T05:04:16.068Z,4.32
2023-01-13T05:05:16.047Z,4.18
2023-01-13T05:06:15.987Z,5.10
2023-01-13T05:07:15.965Z,4.78
2023-01-13T05:08:15.915Z,4.80
2023-01-13T05:09:15.913Z,4.54
2023-01-13T05:10:15.867Z,4.42
2023-01-13T05:11:15.817Z,4.77
2023-01-13T05:12:15.763Z,4.77
2023-01-13T05:13:15.727Z,5.18
2023-01-13T05:14:15.696Z,4.76
2023-01-13T05:15:15.652Z,4.56
2023-01-13T05:16:15.711Z,4.80
2023-01-13T05:17:15.578Z,4.52
2023-01-13T05:18:15.541Z,4.44
2023-01-13T05:19:15.514Z,4.96
2023-01-13T05:20:15.463Z,5.15
2023-01-13T05:21:15.433Z,4.15
2023-01-13T05:22:15.395Z,5.53
2023-01-13T05:23:15.368Z,5.23
2023-01-13T05:24:15.328Z,4.77
2023-01-13T05:25:15.302Z,4.26
2023-01-13T05:26:15.280Z,3.84
2023-01-13T05:27:15.217Z,5.00
2023-01-13T05:28:15.195Z,5.16
2023-01-13T05:29:15.154Z,4.75
2023-01-13T05:30:15.111Z,4.19
2023-01-13T05:31:15.187Z,4.87
2023-01-13T05:32:15.041Z,4.58
2023-01-13T05:33:15.019Z,4.28
2023-01-13T05:34:14.968Z,4.45
2023-01-13T05:35:14.938Z,4.79
2023-01-13T05:36:14.897Z,4.84
2023-01-13T05:37:14.868Z,5.00
2023-01-13T05:38:14.831Z,4.36
2023-01-13T05:39:14.790Z,4.61
2023-01-13T05:40:14.750Z,4.73
2023-01-13T05:41:14.722Z,5.12
2023-01-13T05:42:14.712Z,4.70
2023-01-13T05:43:14.651Z,4.69
2023-01-13T05:44:14.616Z,5.27
2023-01-13T05:45:14.592Z,4.85
2023-01-13T05:46:14.592Z,4.90
2023-01-13T05:47:14.512Z,4.63
2023-01-13T05:48:14.486Z,4.39
2023-01-13T05:49:14.438Z,4.48
2023-01-13T05:50:14.405Z,4.64
2023-01-13T05:51:14.387Z,4.71
2023-01-13T05:52:14.332Z,4.94
2023-01-13T05:53:14.368Z,4.54
2023-01-13T05:54:14.260Z,4.86
2023-01-13T05:55:14.223Z,4.83
2023-01-13T05:56:14.193Z,4.63
2023-01-13T05:57:14.135Z,4.31
2023-01-13T05:58:14.129Z,3.83
2023-01-13T05:59:14.063Z,4.59
2023-01-13T06:00:14.027Z,4.63
2023-01-13T06:01:14.076Z,4.78
2023-01-13T06:02:13.935Z,4.91
2023-01-13T06:03:13.990Z,4.39
2023-01-13T06:04:13.917Z,4.86
2023-01-13T06:05:13.840Z,4.38
2023-01-13T06:06:13.764Z,4.38
2023-01-13T06:07:13.716Z,4.66
2023-01-13T06:08:13.672Z,4.64
2023-01-13T06:09:14.001Z,4.81
2023-01-13T06:10:13.589Z,4.35
2023-01-13T06:11:13.549Z,4.64
2023-01-13T06:12:13.512Z,4.66
2023-01-13T06:13:13.479Z,4.27
2023-01-13T06:14:13.477Z,4.69
2023-01-13T06:15:13.420Z,4.63
2023-01-13T06:16:13.494Z,4.77
2023-01-13T06:17:13.371Z,4.46
2023-01-13T06:18:13.318Z,4.69
2023-01-13T06:19:13.297Z,4.05
2023-01-13T06:20:13.419Z,4.42
2023-01-13T06:21:13.553Z,4.26
2023-01-13T06:22:13.185Z,4.97
2023-01-13T06:23:13.164Z,4.51
2023-01-13T06:24:13.522Z,4.48
2023-01-13T06:25:13.074Z,5.16
2023-01-13T06:26:13.050Z,5.33
2023-01-13T06:27:13.018Z,6.42
2023-01-13T06:28:12.979Z,6.11
2023-01-13T06:29:12.933Z,5.93
2023-01-13T06:30:12.937Z,5.70
2023-01-13T06:31:12.932Z,5.05
2023-01-13T06:32:12.825Z,5.16
2023-01-13T06:33:12.821Z,5.22
2023-01-13T06:34:12.754Z,5.23
2023-01-13T06:35:12.723Z,5.43
2023-01-13T06:36:13.515Z,4.85
2023-01-13T06:37:12.662Z,5.69
2023-01-13T06:38:12.633Z,5.66
2023-01-13T06:39:12.583Z,4.83
2023-01-13T06:40:13.008Z,5.40
2023-01-13T06:41:12.513Z,5.54
2023-01-13T06:42:12.484Z,5.73
2023-01-13T06:43:15.086Z,6.29
2023-01-13T06:44:12.533Z,5.78
2023-01-13T06:45:12.354Z,5.29
2023-01-13T06:46:12.359Z,4.88
2023-01-13T06:47:12.294Z,5.49
2023-01-13T06:48:12.274Z,5.19
2023-01-13T06:49:12.520Z,5.08
2023-01-13T06:50:12.170Z,5.41
2023-01-13T06:51:12.127Z,5.73
2023-01-13T06:52:12.079Z,5.58
2023-01-13T06:53:12.587Z,6.19
2023-01-13T06:54:12.023Z,6.45
2023-01-13T06:55:12.718Z,5.54
2023-01-13T06:56:11.910Z,6.00
2023-01-13T06:57:11.892Z,6.28
2023-01-13T06:58:12.015Z,6.01
2023-01-13T06:59:11.770Z,5.52
2023-01-13T07:00:11.777Z,7.24
2023-01-13T07:01:11.830Z,7.86
2023-01-13T07:02:11.854Z,8.96
2023-01-13T07:03:12.040Z,9.46
2023-01-13T07:04:11.560Z,9.74
2023-01-13T07:05:11.557Z,10.04
2023-01-13T07:06:18.963Z,10.60
2023-01-13T07:07:11.436Z,10.64
2023-01-13T07:08:11.383Z,10.58
2023-01-13T07:09:11.370Z,10.93
2023-01-13T07:10:11.317Z,11.22
2023-01-13T07:11:11.551Z,10.63
2023-01-13T07:12:11.226Z,10.76
2023-01-13T07:13:11.188Z,11.20
2023-01-13T07:14:11.160Z,11.61
2023-01-13T07:15:11.391Z,11.88
2023-01-13T07:16:11.178Z,11.49
2023-01-13T07:17:12.101Z,11.51
2023-01-13T07:18:11.071Z,12.54
2023-01-13T07:19:11.057Z,12.94
2023-01-13T07:20:10.938Z,11.05
2023-01-13T07:21:10.917Z,12.04
2023-01-13T07:22:11.031Z,12.00
2023-01-13T07:23:12.901Z,12.59
2023-01-13T07:24:11.091Z,13.10
2023-01-13T07:25:10.803Z,12.23
2023-01-13T07:26:10.739Z,12.05
2023-01-13T07:27:10.712Z,13.08
2023-01-13T07:28:10.650Z,13.14
2023-01-13T07:29:11.029Z,12.40
2023-01-13T07:30:10.578Z,12.20
2023-01-13T07:31:10.667Z,12.96
2023-01-13T07:32:10.530Z,13.37
2023-01-13T07:33:10.487Z,14.07
2023-01-13T07:34:10.569Z,13.88
2023-01-13T07:35:10.424Z,14.06
2023-01-13T07:36:10.427Z,14.27
2023-01-13T07:37:10.525Z,14.50
2023-01-13T07:38:10.337Z,13.62
2023-01-13T07:39:10.321Z,12.68
2023-01-13T07:40:10.286Z,13.44
2023-01-13T07:41:10.532Z,13.66
2023-01-13T07:42:10.251Z,12.79
2023-01-13T07:43:10.220Z,12.93
2023-01-13T07:44:10.187Z,13.48
2023-01-13T07:45:12.239Z,12.58
2023-01-13T07:46:13.218Z,12.28
2023-01-13T07:47:10.103Z,12.45
2023-01-13T07:48:10.607Z,12.46
2023-01-13T07:49:10.032Z,12.02
2023-01-13T07:50:10.169Z,11.60
2023-01-13T07:51:17.537Z,12.43
2023-01-13T07:52:10.031Z,12.20
2023-01-13T07:53:09.996Z,11.58
2023-01-13T07:54:10.030Z,11.86
2023-01-13T07:55:09.924Z,11.39
2023-01-13T07:56:10.106Z,12.12
2023-01-13T07:57:09.849Z,11.71
2023-01-13T07:58:09.819Z,12.84
2023-01-13T07:59:10.073Z,12.23
2023-01-13T08:00:12.037Z,12.18
2023-01-13T08:01:09.920Z,10.02
2023-01-13T08:02:09.810Z,11.35
2023-01-13T08:03:09.732Z,10.35
2023-01-13T08:04:10.131Z,10.21
2023-01-13T08:05:09.683Z,12.07
2023-01-13T08:06:09.580Z,11.17
2023-01-13T08:07:09.507Z,11.50
2023-01-13T08:08:09.459Z,10.56
2023-01-13T08:09:09.571Z,10.87
2023-01-13T08:10:09.397Z,10.30
2023-01-13T08:11:09.837Z,10.09
2023-01-13T08:12:09.300Z,11.06
2023-01-13T08:13:09.296Z,11.03
2023-01-13T08:14:09.223Z,10.44
2023-01-13T08:15:09.549Z,10.35
2023-01-13T08:16:09.153Z,10.75
2023-01-13T08:17:09.118Z,10.07
2023-01-13T08:18:09.450Z,10.45
2023-01-13T08:19:09.524Z,9.87
2023-01-13T08:20:09.046Z,11.12
2023-01-13T08:21:08.956Z,9.52
2023-01-13T08:22:08.941Z,9.68
2023-01-13T08:23:08.872Z,10.21
2023-01-13T08:24:08.877Z,10.22
2023-01-13T08:25:09.042Z,10.83
2023-01-13T08:26:08.752Z,10.17
2023-01-13T08:27:08.719Z,10.39
2023-01-13T08:28:08.683Z,10.09
2023-01-13T08:29:08.871Z,10.43
2023-01-13T08:30:08.724Z,10.14
2023-01-13T08:31:09.089Z,10.42
2023-01-13T08:32:08.643Z,9.75
2023-01-13T08:33:08.589Z,9.37
2023-01-13T08:34:08.689Z,10.51
2023-01-13T08:35:08.594Z,10.28
2023-01-13T08:36:08.542Z,10.29
2023-01-13T08:37:08.499Z,10.06
2023-01-13T08:38:08.579Z,10.92
2023-01-13T08:40:08.134Z,10.15
2023-01-13T08:41:08.063Z,12.09
2023-01-13T08:42:08.039Z,17.77
2023-01-13T08:43:08.197Z,20.16
2023-01-13T08:44:07.952Z,18.70
2023-01-13T08:45:08.074Z,18.15
2023-01-13T08:46:11.184Z,17.19
2023-01-13T08:47:07.820Z,16.67
2023-01-13T08:48:08.161Z,18.03
2023-01-13T08:49:07.764Z,18.22
2023-01-13T08:50:08.079Z,18.42
2023-01-13T08:51:07.688Z,18.01
2023-01-13T08:52:07.870Z,16.72
2023-01-13T08:53:07.593Z,17.08
2023-01-13T08:54:07.545Z,16.46
2023-01-13T08:55:07.478Z,17.18
2023-01-13T08:56:07.456Z,16.55
2023-01-13T08:57:08.871Z,15.89
2023-01-13T08:58:15.265Z,16.79
2023-01-13T08:59:07.512Z,16.03
2023-01-13T09:00:07.473Z,15.17
2023-01-13T09:01:07.694Z,16.50
2023-01-13T09:02:07.595Z,16.01
2023-01-13T09:03:07.377Z,15.49
2023-01-13T09:04:07.443Z,15.27
2023-01-13T09:05:07.493Z,14.93
2023-01-13T09:06:07.596Z,14.29
2023-01-13T09:07:07.287Z,15.00
2023-01-13T09:08:07.266Z,13.40
2023-01-13T09:09:07.237Z,13.24
2023-01-13T09:10:07.302Z,13.91
2023-01-13T09:11:07.653Z,14.10
2023-01-13T09:12:07.609Z,14.05
2023-01-13T09:13:07.093Z,13.80
2023-01-13T09:14:07.071Z,13.77
2023-01-13T09:15:07.113Z,13.65
2023-01-13T09:16:07.128Z,14.32
2023-01-13T09:17:06.958Z,14.38
2023-01-13T09:18:06.947Z,13.97
2023-01-13T09:19:07.059Z,14.29
2023-01-13T09:20:07.091Z,13.50
2023-01-13T09:21:06.839Z,13.77
2023-01-13T09:22:06.783Z,11.97
2023-01-13T09:23:09.884Z,11.97
2023-01-13T09:24:07.248Z,11.94
2023-01-13T09:25:08.093Z,13.45
2023-01-13T09:26:06.648Z,11.80
2023-01-13T09:27:06.592Z,12.91
2023-01-13T09:28:06.546Z,13.71
2023-01-13T09:29:06.493Z,12.76
2023-01-13T09:30:06.639Z,13.32
2023-01-13T09:31:06.494Z,13.90
2023-01-13T09:32:06.517Z,13.20
2023-01-13T09:33:06.352Z,13.38
2023-01-13T09:34:06.318Z,13.30
2023-01-13T09:35:06.269Z,12.59
2023-01-13T09:36:06.742Z,12.72
2023-01-13T09:37:06.940Z,12.75
2023-01-13T09:38:06.190Z,13.58
2023-01-13T09:39:06.402Z,13.58
2023-01-13T09:40:06.075Z,13.08
2023-01-13T09:41:06.032Z,11.65
2023-01-13T09:42:06.609Z,12.63
2023-01-13T09:43:06.612Z,12.68
2023-01-13T09:44:06.282Z,12.60
2023-01-13T09:45:06.057Z,12.28
2023-01-13T09:46:06.156Z,12.38
2023-01-13T09:47:06.083Z,11.76
2023-01-13T09:48:06.033Z,11.72
2023-01-13T09:49:06.054Z,13.07
2023-01-13T09:50:05.978Z,12.04
2023-01-13T09:51:06.149Z,11.92
2023-01-13T09:52:05.927Z,12.38
2023-01-13T09:53:05.911Z,10.92
2023-01-13T09:54:05.868Z,11.31
2023-01-13T09:55:05.873Z,11.07
2023-01-13T09:56:06.176Z,11.64
2023-01-13T09:57:07.617Z,11.05
2023-01-13T09:58:08.014Z,10.59
2023-01-13T09:59:05.750Z,11.12
2023-01-13T10:00:05.686Z,10.82
2023-01-13T10:01:05.804Z,10.65
2023-01-13T10:02:06.185Z,9.83
2023-01-13T10:03:05.614Z,9.93
2023-01-13T10:04:06.442Z,10.68
2023-01-13T10:05:05.667Z,9.84
2023-01-13T10:06:07.480Z,9.89
2023-01-13T10:07:05.437Z,9.88
2023-01-13T10:08:05.408Z,10.07
2023-01-13T10:09:05.339Z,10.05
2023-01-13T10:10:07.832Z,10.19
2023-01-13T10:11:05.242Z,9.48
2023-01-13T10:12:05.614Z,10.00
2023-01-13T10:13:05.192Z,9.12
2023-01-13T10:14:05.171Z,9.67
2023-01-13T10:15:05.086Z,9.47
2023-01-13T10:16:05.182Z,9.40
2023-01-13T10:17:04.987Z,9.66
2023-01-13T10:18:05.129Z,9.21
2023-01-13T10:19:04.873Z,7.83
2023-01-13T10:20:04.812Z,8.03
2023-01-13T10:21:04.780Z,8.88
2023-01-13T10:22:04.712Z,9.32
2023-01-13T10:23:05.086Z,9.00
2023-01-13T10:24:04.643Z,9.41
2023-01-13T10:25:11.616Z,9.55
2023-01-13T10:26:04.620Z,8.56
2023-01-13T10:27:04.493Z,9.34
2023-01-13T10:28:04.471Z,8.95
2023-01-13T10:29:04.437Z,8.01
2023-01-13T10:30:04.607Z,8.55
2023-01-13T10:31:04.401Z,8.93
2023-01-13T10:32:04.282Z,8.97
2023-01-13T10:33:04.244Z,8.49
2023-01-13T10:34:04.241Z,8.82
2023-01-13T10:35:04.602Z,8.89
2023-01-13T10:36:04.085Z,9.89
2023-01-13T10:37:04.040Z,11.52
2023-01-13T10:38:04.112Z,10.08
2023-01-13T10:39:03.972Z,10.03
2023-01-13T10:40:03.897Z,10.06
2023-01-13T10:41:03.860Z,9.60
2023-01-13T10:42:03.801Z,10.06
2023-01-13T10:43:04.104Z,10.43
2023-01-13T10:44:03.719Z,9.61
2023-01-13T10:45:03.750Z,9.29
2023-01-13T10:46:03.890Z,8.62
2023-01-13T10:47:03.605Z,9.35
2023-01-13T10:48:04.512Z,9.61
2023-01-13T10:49:03.630Z,9.31
2023-01-13T10:50:04.481Z,9.89
2023-01-13T10:51:03.384Z,9.74
2023-01-13T10:52:03.931Z,9.15
2023-01-13T10:53:03.290Z,10.50
2023-01-13T10:54:03.303Z,9.84
2023-01-13T10:55:03.175Z,9.12
2023-01-13T10:56:06.380Z,10.00
2023-01-13T10:57:03.124Z,9.88
2023-01-13T10:58:03.156Z,8.59
2023-01-13T10:59:02.985Z,9.89
2023-01-13T11:00:03.143Z,9.25
2023-01-13T11:01:03.022Z,8.72
2023-01-13T11:02:13.086Z,9.15
2023-01-13T11:03:02.991Z,8.58
2023-01-13T11:04:02.742Z,9.20
2023-01-13T11:05:03.359Z,9.54
2023-01-13T11:06:02.655Z,9.76
2023-01-13T11:07:03.625Z,9.96
2023-01-13T11:08:02.528Z,11.19
2023-01-13T11:09:02.615Z,11.20
2023-01-13T11:10:02.459Z,10.43
2023-01-13T11:11:02.441Z,10.33
2023-01-13T11:12:02.399Z,9.98
2023-01-13T11:13:02.385Z,9.72
2023-01-13T11:14:02.620Z,9.92
2023-01-13T11:15:02.296Z,8.91
2023-01-13T11:16:02.324Z,9.14
2023-01-13T11:17:02.650Z,8.68
2023-01-13T11:18:02.608Z,8.69
2023-01-13T11:19:02.286Z,8.84
2023-01-13T11:20:02.084Z,8.86
2023-01-13T11:21:03.046Z,9.10
2023-01-13T11:22:02.242Z,8.75
2023-01-13T11:23:01.977Z,9.22
2023-01-13T11:24:02.155Z,9.17
2023-01-13T11:25:01.892Z,8.86
2023-01-13T11:26:01.801Z,9.36
2023-01-13T11:27:01.734Z,9.73
2023-01-13T11:28:01.697Z,9.96
2023-01-13T11:29:02.583Z,10.09
2023-01-13T11:30:01.627Z,10.21
2023-01-13T11:31:01.657Z,11.35
2023-01-13T11:32:01.568Z,11.26
2023-01-13T11:33:01.593Z,10.68
2023-01-13T11:34:01.531Z,10.95
2023-01-13T11:35:01.494Z,11.34
2023-01-13T11:36:01.478Z,11.91
2023-01-13T11:37:01.731Z,11.00
2023-01-13T11:38:01.384Z,11.26
2023-01-13T11:39:01.357Z,12.44
2023-01-13T11:40:01.683Z,15.49
2023-01-13T11:41:01.311Z,16.36
2023-01-13T11:42:01.625Z,16.87
2023-01-13T11:43:01.228Z,15.45
2023-01-13T11:44:01.178Z,11.50
2023-01-13T11:45:01.154Z,13.28
2023-01-13T11:46:01.115Z,11.96
2023-01-13T11:47:01.242Z,13.98
2023-01-13T11:48:01.048Z,12.47
2023-01-13T11:49:01.051Z,12.25
2023-01-13T11:50:00.982Z,12.57
2023-01-13T11:51:00.933Z,12.46
2023-01-13T11:52:00.904Z,11.05
2023-01-13T11:53:01.129Z,11.61
2023-01-13T11:54:01.133Z,12.44
2023-01-13T11:55:00.782Z,11.70
2023-01-13T11:56:00.749Z,12.44
2023-01-13T11:57:00.708Z,12.86
2023-01-13T11:58:00.684Z,15.34
2023-01-13T11:59:00.664Z,16.13
2023-01-13T12:00:00.616Z,16.08
2023-01-13T12:01:00.605Z,14.81
2023-01-13T12:02:00.665Z,13.84
2023-01-13T12:03:00.541Z,17.92
2023-01-13T12:04:00.464Z,17.41
2023-01-13T12:05:00.754Z,17.46
2023-01-13T12:06:00.388Z,16.82
2023-01-13T12:07:00.357Z,18.56
2023-01-13T12:08:00.314Z,17.05
2023-01-13T12:09:00.285Z,17.30
2023-01-13T12:10:00.630Z,18.80
2023-01-13T12:11:00.215Z,19.38
2023-01-13T12:12:00.163Z,18.69
2023-01-13T12:13:00.353Z,17.46
2023-01-13T12:14:00.112Z,16.47
2023-01-13T12:15:00.164Z,16.21
2023-01-13T12:16:00.014Z,17.48
2023-01-13T12:17:01.245Z,17.23
2023-01-13T12:17:59.937Z,15.44
2023-01-13T12:18:59.899Z,16.08
2023-01-13T12:20:00.164Z,17.16
2023-01-13T12:20:59.851Z,18.23
2023-01-13T12:21:59.802Z,16.44
2023-01-13T12:22:59.737Z,16.58
2023-01-13T12:23:59.701Z,15.25
2023-01-13T12:25:00.145Z,17.07
2023-01-13T12:25:59.632Z,16.54
2023-01-13T12:26:59.590Z,15.36
2023-01-13T12:27:59.552Z,16.63
2023-01-13T12:28:59.637Z,17.26
2023-01-13T12:29:59.469Z,18.17
2023-01-13T12:30:59.440Z,17.75
2023-01-13T12:32:00.481Z,15.68
2023-01-13T12:32:59.347Z,17.47
2023-01-13T12:33:59.317Z,17.67
2023-01-13T12:34:59.634Z,16.35
2023-01-13T12:35:59.224Z,15.93
2023-01-13T12:36:59.203Z,18.40
2023-01-13T12:37:59.142Z,17.11
2023-01-13T12:38:59.108Z,16.80
2023-01-13T12:39:59.068Z,16.39
2023-01-13T12:40:59.025Z,18.00
2023-01-13T12:41:58.976Z,14.43
2023-01-13T12:42:58.942Z,16.92
2023-01-13T12:43:58.905Z,16.72
2023-01-13T12:44:58.872Z,16.28
2023-01-13T12:45:58.924Z,17.12
2023-01-13T12:46:58.795Z,17.59
2023-01-13T12:47:58.760Z,16.18
2023-01-13T12:48:58.719Z,17.74
2023-01-13T12:49:59.147Z,19.79
2023-01-13T12:50:58.646Z,18.85
2023-01-13T12:51:58.613Z,17.76
2023-01-13T12:52:58.611Z,19.18
2023-01-13T12:53:58.535Z,20.39
2023-01-13T12:54:58.502Z,19.74
2023-01-13T12:55:58.460Z,20.27
2023-01-13T12:56:58.459Z,19.22
2023-01-13T12:57:58.412Z,17.88
2023-01-13T12:58:58.356Z,15.92
2023-01-13T12:59:58.323Z,16.57
2023-01-13T13:00:58.406Z,19.48
2023-01-13T13:01:58.460Z,18.62
2023-01-13T13:02:58.270Z,19.23
2023-01-13T13:03:58.190Z,18.58
2023-01-13T13:04:58.650Z,19.96
2023-01-13T13:05:58.182Z,20.75
2023-01-13T13:06:58.092Z,20.22
2023-01-13T13:07:58.158Z,20.33
2023-01-13T13:08:58.037Z,20.38
2023-01-13T13:09:57.993Z,19.54
2023-01-13T13:10:58.151Z,16.91
2023-01-13T13:11:57.932Z,18.43
2023-01-13T13:12:58.154Z,17.69
2023-01-13T13:13:57.857Z,20.23
2023-01-13T13:14:57.946Z,17.37
2023-01-13T13:15:57.795Z,17.97
2023-01-13T13:16:57.778Z,19.71
2023-01-13T13:17:57.725Z,18.87
2023-01-13T13:18:58.157Z,19.01
2023-01-13T13:19:57.675Z,19.14
2023-01-13T13:20:57.641Z,18.35
2023-01-13T13:21:57.618Z,19.44
2023-01-13T13:22:57.589Z,18.07
2023-01-13T13:23:57.576Z,18.80
2023-01-13T13:24:57.628Z,19.46
2023-01-13T13:25:57.500Z,19.84
2023-01-13T13:26:57.462Z,19.25
2023-01-13T13:27:57.425Z,22.70
2023-01-13T13:28:57.402Z,21.41
2023-01-13T13:29:57.674Z,20.98
2023-01-13T13:30:57.378Z,19.54
2023-01-13T13:31:57.295Z,17.12
2023-01-13T13:32:57.251Z,17.77
2023-01-13T13:33:57.214Z,18.79
2023-01-13T13:34:57.661Z,17.00
2023-01-13T13:35:57.153Z,16.64
2023-01-13T13:36:57.108Z,16.44
2023-01-13T13:37:57.083Z,17.30
2023-01-13T13:38:57.040Z,16.86
2023-01-13T13:39:57.060Z,18.34
2023-01-13T13:40:56.996Z,17.77
2023-01-13T13:41:56.937Z,16.29
2023-01-13T13:42:56.908Z,17.55
2023-01-13T13:43:56.873Z,17.59
2023-01-13T13:44:57.162Z,18.29
2023-01-13T13:45:56.900Z,17.06
2023-01-13T13:46:56.758Z,17.27
2023-01-13T13:47:56.717Z,19.27
2023-01-13T13:48:56.688Z,16.98
2023-01-13T13:49:56.677Z,16.81
2023-01-13T13:50:56.657Z,16.91
2023-01-13T13:51:56.592Z,17.54
2023-01-13T13:52:56.562Z,17.49
2023-01-13T13:53:56.515Z,16.25
2023-01-13T13:54:56.682Z,15.94
2023-01-13T13:55:56.456Z,16.23
2023-01-13T13:56:56.436Z,16.09
2023-01-13T13:57:56.668Z,17.19
2023-01-13T13:58:56.346Z,15.38
2023-01-13T13:59:56.309Z,15.25
2023-01-13T14:00:56.327Z,16.83
2023-01-13T14:01:56.791Z,16.94